createdAt,value
2023-01-26T00:01:29.515Z,2.62
2023-01-26T00:03:57.958Z,2.63
2023-01-26T00:06:26.320Z,2.64
2023-01-26T00:08:59.167Z,2.63
2023-01-26T00:11:29.406Z,2.62
2023-01-26T00:13:59.507Z,2.62
2023-01-26T00:16:27.856Z,2.62
2023-01-26T00:18:55.126Z,2.64
2023-01-26T00:21:24.532Z,2.64
2023-01-26T00:23:52.765Z,2.64
2023-01-26T00:26:23.668Z,2.62
2023-01-26T00:28:52.710Z,2.62
2023-01-26T00:31:24.013Z,2.62
2023-01-26T00:33:56.986Z,2.62
2023-01-26T00:36:24.382Z,2.60
2023-01-26T00:38:51.555Z,2.58
2023-01-26T00:41:37.423Z,2.57
2023-01-26T00:44:04.820Z,2.53
2023-01-26T00:46:31.915Z,2.51
2023-01-26T00:49:01.058Z,2.52
2023-01-26T00:51:28.346Z,2.53
2023-01-26T00:53:56.802Z,2.53
2023-01-26T00:56:23.792Z,2.52
2023-01-26T00:58:50.940Z,2.49
2023-01-26T01:01:17.944Z,2.47
2023-01-26T01:03:45.084Z,2.44
2023-01-26T01:06:12.193Z,2.42
2023-01-26T01:08:39.160Z,2.39
2023-01-26T01:11:12.013Z,2.38
2023-01-26T01:13:40.256Z,2.34
2023-01-26T01:16:13.725Z,2.31
2023-01-26T01:18:41.812Z,2.30
2023-01-26T01:21:12.008Z,2.30
2023-01-26T01:23:39.297Z,2.29
2023-01-26T01:26:09.329Z,2.27
2023-01-26T01:28:36.950Z,2.25
2023-01-26T01:31:06.768Z,2.24
2023-01-26T01:33:34.223Z,2.21
2023-01-26T01:36:09.020Z,2.18
2023-01-26T01:38:36.243Z,2.15
2023-01-26T01:41:04.099Z,2.11
2023-01-26T01:43:31.299Z,2.10
2023-01-26T01:46:02.148Z,2.10
2023-01-26T01:48:47.497Z,2.10
2023-01-26T01:51:21.441Z,2.08
2023-01-26T01:53:51.504Z,2.09
2023-01-26T01:56:23.924Z,2.10
2023-01-26T01:58:55.660Z,2.12
2023-01-26T02:01:22.594Z,2.11
2023-01-26T02:03:52.487Z,2.11
2023-01-26T02:06:44.518Z,2.10
2023-01-26T02:09:33.145Z,2.08
2023-01-26T02:12:03.292Z,2.06
2023-01-26T02:14:32.538Z,2.05
2023-01-26T02:16:59.794Z,2.05
2023-01-26T02:19:48.777Z,2.05
2023-01-26T02:22:58.260Z,2.05
2023-01-26T02:25:52.178Z,2.00
2023-01-26T02:28:24.997Z,2.00
2023-01-26T02:30:54.268Z,2.01
2023-01-26T02:33:27.593Z,2.02
2023-01-26T02:35:59.885Z,2.02
2023-01-26T02:38:42.785Z,2.00
2023-01-26T02:41:34.912Z,1.98
2023-01-26T02:44:04.949Z,1.96
2023-01-26T02:46:31.915Z,1.95
2023-01-26T02:49:17.527Z,1.96
2023-01-26T02:51:44.638Z,1.97
2023-01-26T02:54:31.680Z,1.95
2023-01-26T02:57:00.787Z,1.95
2023-01-26T02:59:28.216Z,1.96
2023-01-26T03:01:57.518Z,1.97
2023-01-26T03:04:24.812Z,1.95
2023-01-26T03:06:53.288Z,1.88
2023-01-26T03:09:20.282Z,1.88
2023-01-26T03:11:47.955Z,1.86
2023-01-26T03:14:17.668Z,1.85
2023-01-26T03:16:45.073Z,1.86
2023-01-26T03:19:32.783Z,1.85
2023-01-26T03:22:19.469Z,1.84
2023-01-26T03:25:05.180Z,1.84
2023-01-26T03:27:42.510Z,1.84
2023-01-26T03:30:11.134Z,1.84
2023-01-26T03:32:38.537Z,1.79
2023-01-26T03:35:15.037Z,1.79
2023-01-26T03:37:44.309Z,1.79
2023-01-26T03:40:41.834Z,1.75
2023-01-26T03:43:28.106Z,1.75
2023-01-26T03:46:13.764Z,1.70
2023-01-26T03:48:59.468Z,1.68
2023-01-26T03:51:44.787Z,1.65
2023-01-26T03:54:30.291Z,1.65
2023-01-26T03:56:57.409Z,1.67
2023-01-26T03:59:38.402Z,1.70
2023-01-26T04:02:30.385Z,1.69
2023-01-26T04:05:16.808Z,1.70
2023-01-26T04:08:08.527Z,1.74
2023-01-26T04:10:35.753Z,1.76
2023-01-26T04:13:22.810Z,1.78
2023-01-26T04:16:13.938Z,1.81
2023-01-26T04:19:00.414Z,1.84
2023-01-26T04:21:28.999Z,1.85
2023-01-26T04:23:58.424Z,1.86
2023-01-26T04:26:34.722Z,1.84
2023-01-26T04:29:07.515Z,1.85
2023-01-26T04:31:35.405Z,1.84
2023-01-26T04:34:04.607Z,1.88
2023-01-26T04:36:32.285Z,1.90
2023-01-26T04:39:00.721Z,1.90
2023-01-26T04:41:32.850Z,1.91
2023-01-26T04:44:05.147Z,1.94
2023-01-26T04:46:33.280Z,1.94
2023-01-26T04:49:01.564Z,1.95
2023-01-26T04:51:29.070Z,1.97
2023-01-26T04:53:57.163Z,1.99
2023-01-26T04:56:31.679Z,1.97
2023-01-26T04:59:05.639Z,1.94
2023-01-26T05:01:34.269Z,1.91
2023-01-26T05:04:05.177Z,1.91
2023-01-26T05:06:33.531Z,1.94
2023-01-26T05:09:00.594Z,1.96
2023-01-26T05:11:28.356Z,1.96
2023-01-26T05:14:15.308Z,1.92
2023-01-26T05:16:59.654Z,1.91
2023-01-26T05:20:02.387Z,1.87
2023-01-26T05:22:29.360Z,1.84
2023-01-26T05:25:35.024Z,1.77
2023-01-26T05:28:08.900Z,1.75
2023-01-26T05:30:35.994Z,1.73
2023-01-26T05:33:07.791Z,1.71
2023-01-26T05:35:35.269Z,1.70
2023-01-26T05:38:04.308Z,1.67
2023-01-26T05:40:33.835Z,1.68
2023-01-26T05:43:00.855Z,1.70
2023-01-26T05:45:48.546Z,1.70
2023-01-26T05:48:17.260Z,1.71
2023-01-26T05:50:45.747Z,1.74
2023-01-26T05:53:22.341Z,1.76
2023-01-26T05:55:49.759Z,1.81
2023-01-26T05:58:20.601Z,1.86
2023-01-26T06:00:48.913Z,1.88
2023-01-26T06:03:23.185Z,1.92
2023-01-26T06:05:55.490Z,1.91
2023-01-26T06:08:48.625Z,1.87
2023-01-26T06:11:34.668Z,1.83
2023-01-26T06:14:13.024Z,1.80
2023-01-26T06:16:40.661Z,1.80
2023-01-26T06:19:10.859Z,1.81
2023-01-26T06:21:38.644Z,1.83
2023-01-26T06:24:06.382Z,1.84
2023-01-26T06:26:33.419Z,1.84
2023-01-26T06:29:00.553Z,1.85
2023-01-26T06:31:31.242Z,1.85
2023-01-26T06:34:00.878Z,1.84
2023-01-26T06:36:28.363Z,1.83
2023-01-26T06:38:57.132Z,1.85
2023-01-26T06:41:24.947Z,1.84
2023-01-26T06:43:52.375Z,1.84
2023-01-26T06:46:19.776Z,1.84
2023-01-26T06:48:47.731Z,1.84
2023-01-26T06:51:15.758Z,1.86
2023-01-26T06:53:52.067Z,1.90
2023-01-26T06:56:42.556Z,2.02
2023-01-26T06:59:31.574Z,2.08
2023-01-26T07:02:21.634Z,2.16
2023-01-26T07:04:51.131Z,2.18
2023-01-26T07:07:18.099Z,2.21
2023-01-26T07:09:45.213Z,2.20
2023-01-26T07:12:12.243Z,2.21
2023-01-26T07:14:39.386Z,2.20
2023-01-26T07:17:06.368Z,2.21
2023-01-26T07:19:33.902Z,2.24
2023-01-26T07:22:02.216Z,2.22
2023-01-26T07:24:29.934Z,2.21
2023-01-26T07:26:57.199Z,2.21
2023-01-26T07:29:24.358Z,2.23
2023-01-26T07:31:51.608Z,2.25
2023-01-26T07:34:19.577Z,2.28
2023-01-26T07:36:46.934Z,2.33
2023-01-26T07:39:13.957Z,2.35
2023-01-26T07:41:40.997Z,2.40
2023-01-26T07:44:32.811Z,2.40
2023-01-26T07:47:00.255Z,2.39
2023-01-26T07:49:27.611Z,2.40
2023-01-26T07:51:54.664Z,2.40
2023-01-26T07:54:21.768Z,2.40
2023-01-26T07:56:55.267Z,2.40
2023-01-26T07:59:23.523Z,2.40
2023-01-26T08:01:52.199Z,2.42
2023-01-26T08:04:19.512Z,2.45
2023-01-26T08:06:46.567Z,2.48
2023-01-26T08:09:13.868Z,2.48
2023-01-26T08:11:40.921Z,2.48
2023-01-26T08:14:07.928Z,2.50
2023-01-26T08:16:35.033Z,2.53
2023-01-26T08:19:02.975Z,2.55
2023-01-26T08:21:30.113Z,2.55
2023-01-26T08:24:01.721Z,2.58
2023-01-26T08:26:29.688Z,2.60
2023-01-26T08:28:56.929Z,2.61
2023-01-26T08:31:25.425Z,2.63
2023-01-26T08:33:55.124Z,2.67
2023-01-26T08:36:23.330Z,2.73
2023-01-26T08:38:51.919Z,2.79
2023-01-26T08:41:19.496Z,2.86
2023-01-26T08:43:47.101Z,2.93
2023-01-26T08:46:14.664Z,2.98
2023-01-26T08:48:41.666Z,3.02
2023-01-26T08:51:09.255Z,3.06
2023-01-26T08:53:37.661Z,3.09
2023-01-26T08:56:10.199Z,3.12
2023-01-26T08:58:37.777Z,3.15
2023-01-26T09:01:12.301Z,3.17
2023-01-26T09:03:39.792Z,3.18
2023-01-26T09:06:09.777Z,3.18
2023-01-26T09:08:37.405Z,3.22
2023-01-26T09:11:07.180Z,3.25
2023-01-26T09:13:34.647Z,3.28
2023-01-26T09:16:07.437Z,3.30
2023-01-26T09:18:34.801Z,3.34
2023-01-26T09:21:06.668Z,3.38
2023-01-26T09:23:35.194Z,3.42
2023-01-26T09:26:03.253Z,3.42
2023-01-26T09:28:30.381Z,3.40
2023-01-26T09:30:57.570Z,3.40
2023-01-26T09:33:25.413Z,3.42
2023-01-26T09:35:52.373Z,3.41
2023-01-26T09:38:19.386Z,3.41
2023-01-26T09:41:25.130Z,3.44
2023-01-26T09:43:57.816Z,3.48
2023-01-26T09:46:51.307Z,3.53
2023-01-26T09:49:49.084Z,3.58
2023-01-26T09:52:33.512Z,3.61
2023-01-26T09:55:09.373Z,3.58
2023-01-26T09:58:06.843Z,3.56
2023-01-26T10:00:50.973Z,3.55
2023-01-26T10:04:02.429Z,3.57
2023-01-26T10:06:32.137Z,3.61
2023-01-26T10:09:30.049Z,3.61
2023-01-26T10:12:03.253Z,3.61
2023-01-26T10:14:40.646Z,3.62
2023-01-26T10:17:19.325Z,3.63
2023-01-26T10:19:54.229Z,3.64
2023-01-26T10:22:43.921Z,3.67
2023-01-26T10:25:21.493Z,3.74
2023-01-26T10:27:48.422Z,3.78
2023-01-26T10:30:20.958Z,3.84
2023-01-26T10:32:52.683Z,3.87
2023-01-26T10:35:25.354Z,3.90
2023-01-26T10:37:53.335Z,3.91
2023-01-26T10:40:21.640Z,3.94
2023-01-26T10:43:00.017Z,3.96
2023-01-26T10:45:33.072Z,3.96
2023-01-26T10:48:21.736Z,3.98
2023-01-26T10:50:48.982Z,3.99
2023-01-26T10:53:24.883Z,4.04
2023-01-26T10:56:07.278Z,4.06
2023-01-26T10:58:55.954Z,4.05
2023-01-26T11:01:27.612Z,4.06
2023-01-26T11:04:14.679Z,4.05
2023-01-26T11:06:41.975Z,4.04
2023-01-26T11:09:19.244Z,4.05
2023-01-26T11:11:59.145Z,4.05
2023-01-26T11:14:26.675Z,4.06
2023-01-26T11:17:14.348Z,4.07
2023-01-26T11:19:50.191Z,4.05
2023-01-26T11:22:36.383Z,4.05
2023-01-26T11:25:29.605Z,4.04
2023-01-26T11:28:36.328Z,4.06
2023-01-26T11:31:19.996Z,4.06
2023-01-26T11:34:23.197Z,4.04
2023-01-26T11:37:34.167Z,4.03
2023-01-26T11:40:13.069Z,4.04
2023-01-26T11:42:58.119Z,4.03
2023-01-26T11:45:37.059Z,4.06
2023-01-26T11:48:45.491Z,4.03
2023-01-26T11:51:55.512Z,4.00
2023-01-26T11:54:48.804Z,3.99
2023-01-26T11:57:47.146Z,3.96
2023-01-26T12:00:35.942Z,3.90
2023-01-26T12:03:18.387Z,3.87
2023-01-26T12:05:52.803Z,3.85
2023-01-26T12:08:39.868Z,3.88
2023-01-26T12:11:23.117Z,3.91
2023-01-26T12:14:25.519Z,3.92
2023-01-26T12:17:17.751Z,3.92
2023-01-26T12:20:32.264Z,3.91
2023-01-26T12:23:10.826Z,3.92
2023-01-26T12:25:41.089Z,3.92
2023-01-26T12:28:46.918Z,3.89
2023-01-26T12:31:44.867Z,3.88
2023-01-26T12:34:13.984Z,3.82
2023-01-26T12:37:27.769Z,3.74
2023-01-26T12:40:26.603Z,3.67
2023-01-26T12:43:16.924Z,3.57
2023-01-26T12:45:50.488Z,3.47
2023-01-26T12:48:57.984Z,3.35
2023-01-26T12:51:47.129Z,3.32
2023-01-26T12:54:37.302Z,3.38
2023-01-26T12:57:12.788Z,3.45
2023-01-26T12:59:48.485Z,3.55
2023-01-26T13:02:15.939Z,3.63
2023-01-26T13:04:46.668Z,3.69
2023-01-26T13:07:40.594Z,3.78
2023-01-26T13:10:16.129Z,3.84
2023-01-26T13:13:25.221Z,3.91
2023-01-26T13:16:33.448Z,3.94
2023-01-26T13:19:02.565Z,3.97
2023-01-26T13:21:38.322Z,4.00
2023-01-26T13:24:17.966Z,4.01
2023-01-26T13:26:48.429Z,4.01
2023-01-26T13:29:28.706Z,4.03
2023-01-26T13:32:22.918Z,4.03
2023-01-26T13:35:00.770Z,4.02
2023-01-26T13:38:03.054Z,4.01
2023-01-26T13:40:42.918Z,4.00
2023-01-26T13:43:38.139Z,4.01
2023-01-26T13:46:35.160Z,3.99
2023-01-26T13:49:02.677Z,3.96
2023-01-26T13:51:33.329Z,3.98
2023-01-26T13:54:12.563Z,3.97
2023-01-26T13:56:43.220Z,3.97
2023-01-26T13:59:20.445Z,3.96
2023-01-26T14:01:54.312Z,3.96
2023-01-26T14:04:24.821Z,3.95
2023-01-26T14:07:06.302Z,3.94
2023-01-26T14:09:45.561Z,3.91
2023-01-26T14:12:23.796Z,3.89
2023-01-26T14:14:55.371Z,3.89
2023-01-26T14:17:36.574Z,3.86
2023-01-26T14:20:25.914Z,3.84
2023-01-26T14:23:10.808Z,3.82
2023-01-26T14:25:39.577Z,3.80
2023-01-26T14:28:07.288Z,3.79
2023-01-26T14:30:34.886Z,3.75
2023-01-26T14:33:15.902Z,3.71
2023-01-26T14:35:56.115Z,3.67
2023-01-26T14:38:23.370Z,3.66
2023-01-26T14:40:55.553Z,3.63
2023-01-26T14:43:23.481Z,3.59
2023-01-26T14:46:01.324Z,3.55
2023-01-26T14:48:56.950Z,3.51
2023-01-26T14:51:26.990Z,3.48
2023-01-26T14:54:04.972Z,3.44
2023-01-26T14:56:39.404Z,3.43
2023-01-26T14:59:09.601Z,3.39
2023-01-26T15:01:36.782Z,3.38
2023-01-26T15:04:22.925Z,3.34
2023-01-26T15:06:49.956Z,3.30
2023-01-26T15:09:28.570Z,3.25
2023-01-26T15:12:17.982Z,3.22
2023-01-26T15:14:59.642Z,3.16
2023-01-26T15:17:47.975Z,3.09
2023-01-26T15:20:14.900Z,3.02
2023-01-26T15:22:49.359Z,2.99
2023-01-26T15:25:28.110Z,2.96
2023-01-26T15:28:00.179Z,2.91
2023-01-26T15:30:34.855Z,2.85
2023-01-26T15:33:03.016Z,2.81
2023-01-26T15:35:33.073Z,2.78
2023-01-26T15:38:04.782Z,2.76
2023-01-26T15:40:32.424Z,2.73
2023-01-26T15:43:26.059Z,2.69
2023-01-26T15:45:58.463Z,2.64
2023-01-26T15:48:26.769Z,2.59
2023-01-26T15:50:53.889Z,2.53
2023-01-26T15:53:22.242Z,2.49
2023-01-26T15:55:56.086Z,2.43
2023-01-26T15:58:24.247Z,2.41
2023-01-26T16:00:54.829Z,2.38
2023-01-26T16:03:22.657Z,2.32
2023-01-26T16:05:50.148Z,2.26
2023-01-26T16:08:18.907Z,2.23
2023-01-26T16:10:46.729Z,2.19
2023-01-26T16:13:19.147Z,2.15
2023-01-26T16:15:52.908Z,2.12
2023-01-26T16:18:20.701Z,2.12
2023-01-26T16:20:49.779Z,2.10
2023-01-26T16:23:28.544Z,2.07
2023-01-26T16:25:55.986Z,2.06
2023-01-26T16:28:23.167Z,2.06
2023-01-26T16:30:53.421Z,2.06
2023-01-26T16:33:21.349Z,2.09
2023-01-26T16:35:48.436Z,2.09
2023-01-26T16:38:15.591Z,2.09
2023-01-26T16:40:45.339Z,2.08
2023-01-26T16:43:27.767Z,2.06
2023-01-26T16:45:55.192Z,2.05
2023-01-26T16:48:23.180Z,2.04
2023-01-26T16:50:54.222Z,2.00
2023-01-26T16:53:36.356Z,1.97
2023-01-26T16:56:04.286Z,1.94
2023-01-26T16:58:33.325Z,1.90
2023-01-26T17:01:00.573Z,1.89
2023-01-26T17:03:27.615Z,1.89
2023-01-26T17:05:56.543Z,1.88
2023-01-26T17:08:23.580Z,1.88
2023-01-26T17:11:01.606Z,1.87
2023-01-26T17:13:29.514Z,1.89
2023-01-26T17:15:58.333Z,1.91
2023-01-26T17:18:26.080Z,1.93
2023-01-26T17:20:53.179Z,1.94
2023-01-26T17:23:20.159Z,1.91
2023-01-26T17:25:47.303Z,1.89
2023-01-26T17:28:14.349Z,1.90
2023-01-26T17:30:41.383Z,1.89
2023-01-26T17:33:08.527Z,1.91
2023-01-26T17:35:35.492Z,1.91
2023-01-26T17:38:02.705Z,1.92
2023-01-26T17:40:30.004Z,1.94
2023-01-26T17:42:56.938Z,1.87
2023-01-26T17:45:24.107Z,1.83
2023-01-26T17:47:51.464Z,1.80
2023-01-26T17:50:18.671Z,1.78
2023-01-26T17:52:46.225Z,1.75
2023-01-26T17:55:13.664Z,1.75
2023-01-26T17:57:42.129Z,1.76
2023-01-26T18:00:12.025Z,1.79
2023-01-26T18:02:39.465Z,1.79
2023-01-26T18:05:08.261Z,1.80
2023-01-26T18:07:35.276Z,1.81
2023-01-26T18:10:02.142Z,1.83
2023-01-26T18:12:29.449Z,1.84
2023-01-26T18:14:56.463Z,1.82
2023-01-26T18:17:23.634Z,1.81
2023-01-26T18:19:50.828Z,1.80
2023-01-26T18:22:18.411Z,1.80
2023-01-26T18:24:45.833Z,1.79
2023-01-26T18:27:15.589Z,1.79
2023-01-26T18:29:42.616Z,1.78
2023-01-26T18:32:09.674Z,1.76
2023-01-26T18:34:37.353Z,1.76
2023-01-26T18:37:04.409Z,1.77
2023-01-26T18:39:31.589Z,1.76
2023-01-26T18:41:58.831Z,1.78
2023-01-26T18:44:27.307Z,1.78
2023-01-26T18:46:54.662Z,1.78
2023-01-26T18:49:21.689Z,1.79
2023-01-26T18:51:49.489Z,1.81
2023-01-26T18:54:18.547Z,1.80
2023-01-26T18:56:46.875Z,1.80
2023-01-26T18:59:14.112Z,1.82
2023-01-26T19:01:41.231Z,1.80
2023-01-26T19:04:08.307Z,1.79
2023-01-26T19:06:36.303Z,1.79
2023-01-26T19:09:07.640Z,1.79
2023-01-26T19:11:39.186Z,1.75
2023-01-26T19:14:08.035Z,1.75
2023-01-26T19:16:35.885Z,1.73
2023-01-26T19:19:03.008Z,1.71
2023-01-26T19:21:30.944Z,1.70
2023-01-26T19:24:02.349Z,1.68
2023-01-26T19:26:30.683Z,1.65
2023-01-26T19:28:58.725Z,1.64
2023-01-26T19:31:27.242Z,1.59
2023-01-26T19:34:01.406Z,1.53
2023-01-26T19:36:31.955Z,1.50
2023-01-26T19:38:59.335Z,1.48
2023-01-26T19:41:27.103Z,1.44
2023-01-26T19:43:54.404Z,1.43
2023-01-26T19:46:21.772Z,1.38
2023-01-26T19:48:49.593Z,1.37
2023-01-26T19:51:20.313Z,1.36
2023-01-26T19:53:51.770Z,1.35
2023-01-26T19:56:23.919Z,1.35
2023-01-26T19:58:59.950Z,1.35
2023-01-26T20:01:29.536Z,1.38
2023-01-26T20:04:03.477Z,1.40
2023-01-26T20:06:34.560Z,1.40
2023-01-26T20:09:03.894Z,1.39
2023-01-26T20:11:30.977Z,1.39
2023-01-26T20:14:01.266Z,1.43
2023-01-26T20:16:29.817Z,1.42
2023-01-26T20:18:58.996Z,1.43
2023-01-26T20:21:27.441Z,1.42
2023-01-26T20:23:55.966Z,1.43
2023-01-26T20:26:25.244Z,1.46
2023-01-26T20:28:55.003Z,1.47
2023-01-26T20:31:26.077Z,1.50
2023-01-26T20:33:53.879Z,1.50
2023-01-26T20:36:26.508Z,1.54
2023-01-26T20:38:53.999Z,1.55
2023-01-26T20:41:25.705Z,1.57
2023-01-26T20:44:00.945Z,1.60
2023-01-26T20:46:39.126Z,1.59
2023-01-26T20:49:08.624Z,1.58
2023-01-26T20:51:38.234Z,1.57
2023-01-26T20:54:07.018Z,1.57
2023-01-26T20:56:36.911Z,1.55
2023-01-26T20:59:05.894Z,1.56
2023-01-26T21:01:36.818Z,1.58
2023-01-26T21:04:05.499Z,1.57
2023-01-26T21:06:32.758Z,1.56
2023-01-26T21:09:00.710Z,1.54
2023-01-26T21:11:31.068Z,1.53
2023-01-26T21:14:03.075Z,1.53
2023-01-26T21:16:32.168Z,1.56
2023-01-26T21:18:59.405Z,1.54
2023-01-26T21:21:27.202Z,1.55
2023-01-26T21:23:54.186Z,1.55
2023-01-26T21:26:24.960Z,1.54
2023-01-26T21:28:57.377Z,1.55
2023-01-26T21:31:27.206Z,1.57
2023-01-26T21:33:55.749Z,1.55
2023-01-26T21:36:26.088Z,1.56
2023-01-26T21:38:56.299Z,1.55
2023-01-26T21:41:44.079Z,1.55
2023-01-26T21:44:16.300Z,1.53
2023-01-26T21:46:45.851Z,1.51
2023-01-26T21:49:14.456Z,1.51
2023-01-26T21:52:00.334Z,1.48
2023-01-26T21:54:29.566Z,1.47
2023-01-26T21:56:57.859Z,1.47
2023-01-26T21:59:25.196Z,1.48
2023-01-26T22:01:55.412Z,1.45
2023-01-26T22:04:29.659Z,1.46
2023-01-26T22:06:57.386Z,1.46
2023-01-26T22:09:24.988Z,1.44
2023-01-26T22:11:52.530Z,1.46
2023-01-26T22:14:26.130Z,1.45
2023-01-26T22:16:53.790Z,1.43
2023-01-26T22:19:20.840Z,1.43
2023-01-26T22:21:48.187Z,1.42
2023-01-26T22:24:15.808Z,1.40
2023-01-26T22:26:42.908Z,1.40
2023-01-26T22:29:12.784Z,1.39
2023-01-26T22:31:39.885Z,1.38
2023-01-26T22:34:07.132Z,1.39
2023-01-26T22:36:34.358Z,1.37
2023-01-26T22:39:01.404Z,1.39
2023-01-26T22:41:30.548Z,1.41
2023-01-26T22:44:00.208Z,1.41
2023-01-26T22:46:29.092Z,1.40
2023-01-26T22:48:57.703Z,1.41
2023-01-26T22:51:28.631Z,1.43
2023-01-26T22:53:57.659Z,1.42
2023-01-26T22:56:26.357Z,1.42
2023-01-26T22:58:59.914Z,1.43
2023-01-26T23:01:30.473Z,1.43
2023-01-26T23:03:58.488Z,1.46
2023-01-26T23:06:26.779Z,1.44
2023-01-26T23:08:54.384Z,1.43
2023-01-26T23:11:25.920Z,1.43
2023-01-26T23:13:56.240Z,1.44
2023-01-26T23:16:25.681Z,1.45
2023-01-26T23:18:56.477Z,1.47
2023-01-26T23:21:26.772Z,1.46
2023-01-26T23:23:54.337Z,1.44
2023-01-26T23:26:22.182Z,1.47
2023-01-26T23:28:49.587Z,1.46
2023-01-26T23:31:19.304Z,1.44
2023-01-26T23:33:46.950Z,1.44
2023-01-26T23:36:15.440Z,1.44
2023-01-26T23:38:43.795Z,1.46
2023-01-26T23:41:10.878Z,1.45
2023-01-26T23:43:38.500Z,1.41
2023-01-26T23:46:07.424Z,1.40
2023-01-26T23:48:35.087Z,1.40
2023-01-26T23:51:06.818Z,1.40
2023-01-26T23:53:34.536Z,1.40
2023-01-26T23:56:14.383Z,1.39
2023-01-26T23:58:41.684Z,1.37
